sensor_id;sensor_type;location;lat;lon;timestamp;P1;durP1;ratioP1;P2;durP2;ratioP2
42364;SDS011;28498;54.400;18.566;2022-10-28T00:01:09;67.63;;;30.77;;
42364;SDS011;28498;54.400;18.566;2022-10-28T00:03:43;62.30;;;30.75;;
42364;SDS011;28498;54.400;18.566;2022-10-28T00:06:31;61.55;;;29.65;;
42364;SDS011;28498;54.400;18.566;2022-10-28T00:08:59;65.53;;;29.58;;
42364;SDS011;28498;54.400;18.566;2022-10-28T00:11:27;69.43;;;31.38;;
42364;SDS011;28498;54.400;18.566;2022-10-28T00:13:56;61.83;;;29.88;;
42364;SDS011;28498;54.400;18.566;2022-10-28T00:16:26;64.35;;;30.92;;
42364;SDS011;28498;54.400;18.566;2022-10-28T00:18:55;64.95;;;28.70;;
42364;SDS011;28498;54.400;18.566;2022-10-28T00:21:27;61.25;;;28.63;;
42364;SDS011;28498;54.400;18.566;2022-10-28T00:23:56;59.35;;;28.27;;
42364;SDS011;28498;54.400;18.566;2022-10-28T00:26:27;66.15;;;29.67;;
42364;SDS011;28498;54.400;18.566;2022-10-28T00:29:00;66.20;;;30.05;;
42364;SDS011;28498;54.400;18.566;2022-10-28T00:31:29;63.00;;;30.42;;
42364;SDS011;28498;54.400;18.566;2022-10-28T00:33:58;60.65;;;30.15;;
42364;SDS011;28498;54.400;18.566;2022-10-28T00:36:27;64.50;;;31.83;;
42364;SDS011;28498;54.400;18.566;2022-10-28T00:38:58;64.80;;;31.83;;
42364;SDS011;28498;54.400;18.566;2022-10-28T00:41:30;63.88;;;30.98;;
42364;SDS011;28498;54.400;18.566;2022-10-28T00:44:02;65.47;;;30.52;;
42364;SDS011;28498;54.400;18.566;2022-10-28T00:46:48;58.95;;;30.52;;
42364;SDS011;28498;54.400;18.566;2022-10-28T00:51:51;57.63;;;29.80;;
42364;SDS011;28498;54.400;18.566;2022-10-28T00:54:28;61.67;;;29.58;;
42364;SDS011;28498;54.400;18.566;2022-10-28T00:56:56;61.33;;;30.17;;
42364;SDS011;28498;54.400;18.566;2022-10-28T00:59:25;58.28;;;29.33;;
42364;SDS011;28498;54.400;18.566;2022-10-28T01:01:58;56.90;;;29.85;;
42364;SDS011;28498;54.400;18.566;2022-10-28T01:04:25;54.92;;;29.42;;
42364;SDS011;28498;54.400;18.566;2022-10-28T01:06:52;60.95;;;29.20;;
42364;SDS011;28498;54.400;18.566;2022-10-28T01:09:20;55.13;;;29.45;;
42364;SDS011;28498;54.400;18.566;2022-10-28T01:25:00;55.13;;;28.35;;
42364;SDS011;28498;54.400;18.566;2022-10-28T01:28:25;60.00;;;30.08;;
42364;SDS011;28498;54.400;18.566;2022-10-28T01:36:15;50.40;;;25.33;;
42364;SDS011;28498;54.400;18.566;2022-10-28T01:50:12;43.70;;;25.35;;
42364;SDS011;28498;54.400;18.566;2022-10-28T01:52:52;43.85;;;23.83;;
42364;SDS011;28498;54.400;18.566;2022-10-28T01:55:26;47.40;;;25.60;;
42364;SDS011;28498;54.400;18.566;2022-10-28T01:57:57;45.13;;;25.33;;
42364;SDS011;28498;54.400;18.566;2022-10-28T02:00:25;41.83;;;23.67;;
42364;SDS011;28498;54.400;18.566;2022-10-28T02:02:53;40.67;;;23.20;;
42364;SDS011;28498;54.400;18.566;2022-10-28T02:05:35;38.88;;;22.67;;
42364;SDS011;28498;54.400;18.566;2022-10-28T02:08:14;45.50;;;24.80;;
42364;SDS011;28498;54.400;18.566;2022-10-28T02:11:29;45.58;;;23.95;;
42364;SDS011;28498;54.400;18.566;2022-10-28T02:14:16;40.80;;;21.83;;
42364;SDS011;28498;54.400;18.566;2022-10-28T02:16:59;42.05;;;23.33;;
42364;SDS011;28498;54.400;18.566;2022-10-28T02:19:59;41.00;;;22.63;;
42364;SDS011;28498;54.400;18.566;2022-10-28T02:29:04;46.95;;;24.15;;
42364;SDS011;28498;54.400;18.566;2022-10-28T02:31:51;39.63;;;22.65;;
42364;SDS011;28498;54.400;18.566;2022-10-28T02:34:37;43.95;;;23.17;;
42364;SDS011;28498;54.400;18.566;2022-10-28T02:37:12;41.17;;;22.65;;
42364;SDS011;28498;54.400;18.566;2022-10-28T02:39:45;39.20;;;22.63;;
42364;SDS011;28498;54.400;18.566;2022-10-28T02:42:37;38.03;;;22.60;;
42364;SDS011;28498;54.400;18.566;2022-10-28T02:45:06;35.70;;;21.48;;
42364;SDS011;28498;54.400;18.566;2022-10-28T02:47:49;41.95;;;22.20;;
42364;SDS011;28498;54.400;18.566;2022-10-28T02:50:20;38.58;;;21.98;;
42364;SDS011;28498;54.400;18.566;2022-10-28T02:52:50;37.80;;;21.75;;
42364;SDS011;28498;54.400;18.566;2022-10-28T02:55:21;38.42;;;21.85;;
42364;SDS011;28498;54.400;18.566;2022-10-28T02:57:50;37.22;;;22.48;;
42364;SDS011;28498;54.400;18.566;2022-10-28T03:00:19;35.42;;;21.27;;
42364;SDS011;28498;54.400;18.566;2022-10-28T03:02:48;38.45;;;22.17;;
42364;SDS011;28498;54.400;18.566;2022-10-28T03:05:15;34.88;;;19.80;;
42364;SDS011;28498;54.400;18.566;2022-10-28T03:07:42;33.33;;;20.48;;
42364;SDS011;28498;54.400;18.566;2022-10-28T03:10:09;33.20;;;19.55;;
42364;SDS011;28498;54.400;18.566;2022-10-28T03:12:36;31.80;;;17.92;;
42364;SDS011;28498;54.400;18.566;2022-10-28T03:15:03;32.25;;;18.13;;
42364;SDS011;28498;54.400;18.566;2022-10-28T03:17:30;32.53;;;19.05;;
42364;SDS011;28498;54.400;18.566;2022-10-28T03:19:57;36.92;;;20.08;;
42364;SDS011;28498;54.400;18.566;2022-10-28T03:22:24;34.58;;;21.08;;
42364;SDS011;28498;54.400;18.566;2022-10-28T03:24:51;35.65;;;19.75;;
42364;SDS011;28498;54.400;18.566;2022-10-28T03:27:18;34.45;;;21.50;;
42364;SDS011;28498;54.400;18.566;2022-10-28T03:29:45;38.40;;;22.60;;
42364;SDS011;28498;54.400;18.566;2022-10-28T03:32:12;37.40;;;21.98;;
42364;SDS011;28498;54.400;18.566;2022-10-28T03:34:39;39.83;;;21.27;;
42364;SDS011;28498;54.400;18.566;2022-10-28T03:37:06;40.15;;;20.20;;
42364;SDS011;28498;54.400;18.566;2022-10-28T03:39:33;32.25;;;21.25;;
42364;SDS011;28498;54.400;18.566;2022-10-28T03:42:01;34.72;;;21.38;;
42364;SDS011;28498;54.400;18.566;2022-10-28T03:44:27;36.95;;;21.60;;
42364;SDS011;28498;54.400;18.566;2022-10-28T03:46:54;35.40;;;21.17;;
42364;SDS011;28498;54.400;18.566;2022-10-28T03:49:21;36.20;;;21.00;;
42364;SDS011;28498;54.400;18.566;2022-10-28T03:51:48;32.08;;;20.52;;
42364;SDS011;28498;54.400;18.566;2022-10-28T03:54:15;32.78;;;21.83;;
42364;SDS011;28498;54.400;18.566;2022-10-28T03:56:42;36.35;;;20.67;;
42364;SDS011;28498;54.400;18.566;2022-10-28T03:59:09;35.13;;;22.48;;
42364;SDS011;28498;54.400;18.566;2022-10-28T04:01:40;35.65;;;20.88;;
42364;SDS011;28498;54.400;18.566;2022-10-28T04:04:07;38.15;;;20.23;;
42364;SDS011;28498;54.400;18.566;2022-10-28T04:06:34;38.88;;;21.48;;
42364;SDS011;28498;54.400;18.566;2022-10-28T04:09:01;33.45;;;20.48;;
42364;SDS011;28498;54.400;18.566;2022-10-28T04:11:28;33.58;;;21.48;;
42364;SDS011;28498;54.400;18.566;2022-10-28T04:13:55;35.58;;;20.70;;
42364;SDS011;28498;54.400;18.566;2022-10-28T04:16:21;36.67;;;22.42;;
42364;SDS011;28498;54.400;18.566;2022-10-28T04:18:48;38.63;;;23.30;;
42364;SDS011;28498;54.400;18.566;2022-10-28T04:21:15;36.17;;;22.50;;
42364;SDS011;28498;54.400;18.566;2022-10-28T04:23:43;36.42;;;22.52;;
42364;SDS011;28498;54.400;18.566;2022-10-28T04:26:12;33.13;;;21.08;;
42364;SDS011;28498;54.400;18.566;2022-10-28T04:28:40;35.45;;;21.95;;
42364;SDS011;28498;54.400;18.566;2022-10-28T04:31:07;34.95;;;22.10;;
42364;SDS011;28498;54.400;18.566;2022-10-28T04:33:37;35.17;;;22.98;;
42364;SDS011;28498;54.400;18.566;2022-10-28T04:36:04;37.17;;;21.63;;
42364;SDS011;28498;54.400;18.566;2022-10-28T04:38:31;37.88;;;22.23;;
42364;SDS011;28498;54.400;18.566;2022-10-28T04:40:58;36.55;;;21.88;;
42364;SDS011;28498;54.400;18.566;2022-10-28T04:43:25;34.35;;;21.00;;
42364;SDS011;28498;54.400;18.566;2022-10-28T04:45:52;38.63;;;23.48;;
42364;SDS011;28498;54.400;18.566;2022-10-28T04:48:19;35.63;;;20.80;;
42364;SDS011;28498;54.400;18.566;2022-10-28T04:50:46;43.70;;;23.33;;
42364;SDS011;28498;54.400;18.566;2022-10-28T04:53:13;37.70;;;21.60;;
42364;SDS011;28498;54.400;18.566;2022-10-28T04:55:40;39.10;;;21.60;;
42364;SDS011;28498;54.400;18.566;2022-10-28T04:58:08;38.28;;;22.90;;
42364;SDS011;28498;54.400;18.566;2022-10-28T05:00:35;37.05;;;22.33;;
42364;SDS011;28498;54.400;18.566;2022-10-28T05:03:02;34.45;;;20.77;;
42364;SDS011;28498;54.400;18.566;2022-10-28T05:05:29;33.75;;;22.27;;
42364;SDS011;28498;54.400;18.566;2022-10-28T05:07:56;36.63;;;22.35;;
42364;SDS011;28498;54.400;18.566;2022-10-28T05:10:23;39.40;;;23.65;;
42364;SDS011;28498;54.400;18.566;2022-10-28T05:12:50;42.58;;;24.98;;
42364;SDS011;28498;54.400;18.566;2022-10-28T05:15:17;48.90;;;27.42;;
42364;SDS011;28498;54.400;18.566;2022-10-28T05:17:44;47.88;;;28.55;;
42364;SDS011;28498;54.400;18.566;2022-10-28T05:20:13;44.58;;;28.52;;
42364;SDS011;28498;54.400;18.566;2022-10-28T05:22:49;46.90;;;27.52;;
42364;SDS011;28498;54.400;18.566;2022-10-28T05:25:19;39.83;;;25.55;;
42364;SDS011;28498;54.400;18.566;2022-10-28T05:27:47;39.70;;;25.30;;
42364;SDS011;28498;54.400;18.566;2022-10-28T05:30:14;44.00;;;24.80;;
42364;SDS011;28498;54.400;18.566;2022-10-28T05:32:41;43.40;;;24.38;;
42364;SDS011;28498;54.400;18.566;2022-10-28T05:35:09;42.40;;;24.23;;
42364;SDS011;28498;54.400;18.566;2022-10-28T05:37:36;39.15;;;25.35;;
42364;SDS011;28498;54.400;18.566;2022-10-28T05:40:03;45.25;;;27.15;;
42364;SDS011;28498;54.400;18.566;2022-10-28T05:42:31;38.58;;;23.88;;
42364;SDS011;28498;54.400;18.566;2022-10-28T05:44:58;42.47;;;26.00;;
42364;SDS011;28498;54.400;18.566;2022-10-28T05:47:25;44.22;;;25.30;;
42364;SDS011;28498;54.400;18.566;2022-10-28T05:49:52;48.08;;;27.33;;
42364;SDS011;28498;54.400;18.566;2022-10-28T05:52:19;49.13;;;26.90;;
42364;SDS011;28498;54.400;18.566;2022-10-28T05:54:46;45.10;;;27.27;;
42364;SDS011;28498;54.400;18.566;2022-10-28T05:57:13;45.25;;;26.92;;
42364;SDS011;28498;54.400;18.566;2022-10-28T05:59:40;53.63;;;27.77;;
42364;SDS011;28498;54.400;18.566;2022-10-28T06:02:12;48.20;;;27.67;;
42364;SDS011;28498;54.400;18.566;2022-10-28T06:04:40;49.22;;;27.85;;
42364;SDS011;28498;54.400;18.566;2022-10-28T06:07:07;46.10;;;27.90;;
42364;SDS011;28498;54.400;18.566;2022-10-28T06:09:34;53.22;;;29.25;;
42364;SDS011;28498;54.400;18.566;2022-10-28T06:12:02;59.45;;;31.52;;
42364;SDS011;28498;54.400;18.566;2022-10-28T06:14:30;60.38;;;31.25;;
42364;SDS011;28498;54.400;18.566;2022-10-28T06:16:57;57.67;;;30.15;;
42364;SDS011;28498;54.400;18.566;2022-10-28T06:19:24;60.75;;;32.15;;
42364;SDS011;28498;54.400;18.566;2022-10-28T06:21:51;60.88;;;32.92;;
42364;SDS011;28498;54.400;18.566;2022-10-28T06:24:18;68.22;;;33.50;;
42364;SDS011;28498;54.400;18.566;2022-10-28T06:26:45;69.13;;;34.33;;
42364;SDS011;28498;54.400;18.566;2022-10-28T06:29:12;74.80;;;33.65;;
42364;SDS011;28498;54.400;18.566;2022-10-28T06:31:39;78.53;;;35.65;;
42364;SDS011;28498;54.400;18.566;2022-10-28T06:34:09;87.13;;;37.97;;
42364;SDS011;28498;54.400;18.566;2022-10-28T06:36:37;85.78;;;37.50;;
42364;SDS011;28498;54.400;18.566;2022-10-28T06:39:05;105.05;;;40.72;;
42364;SDS011;28498;54.400;18.566;2022-10-28T06:41:32;90.57;;;39.95;;
42364;SDS011;28498;54.400;18.566;2022-10-28T06:44:00;104.20;;;41.05;;
42364;SDS011;28498;54.400;18.566;2022-10-28T06:46:27;92.78;;;38.58;;
42364;SDS011;28498;54.400;18.566;2022-10-28T06:48:54;83.85;;;37.30;;
42364;SDS011;28498;54.400;18.566;2022-10-28T06:51:21;91.95;;;39.15;;
42364;SDS011;28498;54.400;18.566;2022-10-28T06:53:49;85.22;;;40.55;;
42364;SDS011;28498;54.400;18.566;2022-10-28T06:56:17;75.43;;;37.53;;
42364;SDS011;28498;54.400;18.566;2022-10-28T06:58:46;73.28;;;37.50;;
42364;SDS011;28498;54.400;18.566;2022-10-28T07:01:18;71.57;;;35.80;;
42364;SDS011;28498;54.400;18.566;2022-10-28T07:03:46;65.78;;;34.00;;
42364;SDS011;28498;54.400;18.566;2022-10-28T07:06:14;68.45;;;34.63;;
42364;SDS011;28498;54.400;18.566;2022-10-28T07:08:42;64.80;;;35.70;;
42364;SDS011;28498;54.400;18.566;2022-10-28T07:11:09;66.30;;;34.33;;
42364;SDS011;28498;54.400;18.566;2022-10-28T07:13:36;67.95;;;33.25;;
42364;SDS011;28498;54.400;18.566;2022-10-28T07:16:03;62.75;;;32.83;;
42364;SDS011;28498;54.400;18.566;2022-10-28T07:22:18;59.80;;;31.70;;
42364;SDS011;28498;54.400;18.566;2022-10-28T07:24:50;66.22;;;35.50;;
42364;SDS011;28498;54.400;18.566;2022-10-28T07:27:17;60.33;;;32.25;;
42364;SDS011;28498;54.400;18.566;2022-10-28T07:29:44;56.40;;;31.60;;
42364;SDS011;28498;54.400;18.566;2022-10-28T07:32:11;54.50;;;30.63;;
42364;SDS011;28498;54.400;18.566;2022-10-28T07:34:38;50.63;;;30.33;;
42364;SDS011;28498;54.400;18.566;2022-10-28T07:37:05;47.80;;;28.30;;
42364;SDS011;28498;54.400;18.566;2022-10-28T07:39:32;43.38;;;26.98;;
42364;SDS011;28498;54.400;18.566;2022-10-28T07:41:59;49.33;;;27.95;;
42364;SDS011;28498;54.400;18.566;2022-10-28T07:44:26;42.25;;;26.50;;
42364;SDS011;28498;54.400;18.566;2022-10-28T07:46:53;40.65;;;25.20;;
42364;SDS011;28498;54.400;18.566;2022-10-28T07:49:23;41.65;;;25.20;;
42364;SDS011;28498;54.400;18.566;2022-10-28T07:51:50;43.42;;;26.90;;
42364;SDS011;28498;54.400;18.566;2022-10-28T07:54:17;42.70;;;26.00;;
42364;SDS011;28498;54.400;18.566;2022-10-28T07:56:44;41.80;;;25.45;;
42364;SDS011;28498;54.400;18.566;2022-10-28T07:59:11;41.83;;;25.75;;
42364;SDS011;28498;54.400;18.566;2022-10-28T08:01:38;43.13;;;27.42;;
42364;SDS011;28498;54.400;18.566;2022-10-28T08:04:05;44.55;;;27.60;;
42364;SDS011;28498;54.400;18.566;2022-10-28T08:06:33;44.10;;;25.50;;
42364;SDS011;28498;54.400;18.566;2022-10-28T08:09:01;45.70;;;26.20;;
42364;SDS011;28498;54.400;18.566;2022-10-28T08:11:28;44.47;;;27.20;;
42364;SDS011;28498;54.400;18.566;2022-10-28T08:13:55;44.15;;;28.45;;
42364;SDS011;28498;54.400;18.566;2022-10-28T08:16:22;41.70;;;26.27;;
42364;SDS011;28498;54.400;18.566;2022-10-28T08:18:49;50.92;;;29.25;;
42364;SDS011;28498;54.400;18.566;2022-10-28T08:21:18;43.88;;;27.75;;
42364;SDS011;28498;54.400;18.566;2022-10-28T08:23:45;46.55;;;27.15;;
42364;SDS011;28498;54.400;18.566;2022-10-28T08:26:12;52.15;;;28.15;;
42364;SDS011;28498;54.400;18.566;2022-10-28T08:28:41;45.75;;;26.85;;
42364;SDS011;28498;54.400;18.566;2022-10-28T08:31:08;42.72;;;26.70;;
42364;SDS011;28498;54.400;18.566;2022-10-28T08:33:41;44.83;;;26.98;;
42364;SDS011;28498;54.400;18.566;2022-10-28T08:36:11;42.95;;;25.58;;
42364;SDS011;28498;54.400;18.566;2022-10-28T08:38:41;42.40;;;25.23;;
42364;SDS011;28498;54.400;18.566;2022-10-28T08:46:53;37.85;;;23.70;;
42364;SDS011;28498;54.400;18.566;2022-10-28T08:49:44;45.35;;;24.77;;
42364;SDS011;28498;54.400;18.566;2022-10-28T08:57:39;37.38;;;23.05;;
42364;SDS011;28498;54.400;18.566;2022-10-28T09:00:43;33.38;;;20.95;;
42364;SDS011;28498;54.400;18.566;2022-10-28T09:05:38;31.27;;;18.73;;
42364;SDS011;28498;54.400;18.566;2022-10-28T09:08:19;22.75;;;13.18;;
42364;SDS011;28498;54.400;18.566;2022-10-28T09:19:49;16.80;;;9.35;;
42364;SDS011;28498;54.400;18.566;2022-10-28T09:24:51;12.68;;;8.70;;
42364;SDS011;28498;54.400;18.566;2022-10-28T09:30:47;11.52;;;8.18;;
42364;SDS011;28498;54.400;18.566;2022-10-28T09:36:11;12.45;;;8.55;;
42364;SDS011;28498;54.400;18.566;2022-10-28T09:38:42;15.52;;;8.93;;
42364;SDS011;28498;54.400;18.566;2022-10-28T09:41:15;12.63;;;8.00;;
42364;SDS011;28498;54.400;18.566;2022-10-28T09:43:51;16.95;;;10.18;;
42364;SDS011;28498;54.400;18.566;2022-10-28T09:46:28;14.25;;;8.05;;
42364;SDS011;28498;54.400;18.566;2022-10-28T09:49:03;12.80;;;8.35;;
42364;SDS011;28498;54.400;18.566;2022-10-28T09:54:32;15.98;;;9.32;;
42364;SDS011;28498;54.400;18.566;2022-10-28T09:57:02;13.07;;;8.43;;
42364;SDS011;28498;54.400;18.566;2022-10-28T09:59:30;16.92;;;9.30;;
42364;SDS011;28498;54.400;18.566;2022-10-28T10:01:57;13.50;;;9.15;;
42364;SDS011;28498;54.400;18.566;2022-10-28T10:04:26;14.38;;;9.30;;
42364;SDS011;28498;54.400;18.566;2022-10-28T10:06:55;12.20;;;8.68;;
42364;SDS011;28498;54.400;18.566;2022-10-28T10:09:34;18.92;;;10.32;;
42364;SDS011;28498;54.400;18.566;2022-10-28T10:12:04;14.02;;;9.43;;
42364;SDS011;28498;54.400;18.566;2022-10-28T10:14:39;16.05;;;9.85;;
42364;SDS011;28498;54.400;18.566;2022-10-28T10:17:48;16.13;;;9.85;;
42364;SDS011;28498;54.400;18.566;2022-10-28T10:23:34;14.00;;;9.57;;
42364;SDS011;28498;54.400;18.566;2022-10-28T10:26:12;16.30;;;9.77;;
42364;SDS011;28498;54.400;18.566;2022-10-28T10:28:45;21.17;;;11.25;;
42364;SDS011;28498;54.400;18.566;2022-10-28T10:31:31;18.77;;;10.43;;
42364;SDS011;28498;54.400;18.566;2022-10-28T10:33:58;18.65;;;10.13;;
42364;SDS011;28498;54.400;18.566;2022-10-28T10:36:25;18.50;;;11.00;;
42364;SDS011;28498;54.400;18.566;2022-10-28T10:38:57;17.73;;;10.32;;
42364;SDS011;28498;54.400;18.566;2022-10-28T10:41:33;19.45;;;11.00;;
42364;SDS011;28498;54.400;18.566;2022-10-28T10:47:13;16.17;;;10.15;;
42364;SDS011;28498;54.400;18.566;2022-10-28T10:49:36;19.10;;;9.70;;
42364;SDS011;28498;54.400;18.566;2022-10-28T10:52:21;17.55;;;10.70;;
42364;SDS011;28498;54.400;18.566;2022-10-28T10:57:26;19.33;;;11.25;;
42364;SDS011;28498;54.400;18.566;2022-10-28T10:59:54;21.17;;;12.73;;
42364;SDS011;28498;54.400;18.566;2022-10-28T11:02:26;20.85;;;11.82;;
42364;SDS011;28498;54.400;18.566;2022-10-28T11:05:05;20.98;;;12.10;;
42364;SDS011;28498;54.400;18.566;2022-10-28T11:07:33;19.92;;;11.73;;
42364;SDS011;28498;54.400;18.566;2022-10-28T11:10:02;20.08;;;11.30;;
42364;SDS011;28498;54.400;18.566;2022-10-28T11:12:31;24.52;;;13.93;;
42364;SDS011;28498;54.400;18.566;2022-10-28T11:17:41;20.05;;;13.25;;
42364;SDS011;28498;54.400;18.566;2022-10-28T11:20:24;24.30;;;13.98;;
42364;SDS011;28498;54.400;18.566;2022-10-28T11:25:39;22.48;;;13.60;;
42364;SDS011;28498;54.400;18.566;2022-10-28T11:34:00;20.83;;;11.48;;
42364;SDS011;28498;54.400;18.566;2022-10-28T11:36:51;20.65;;;11.95;;
42364;SDS011;28498;54.400;18.566;2022-10-28T11:39:31;19.20;;;12.88;;
42364;SDS011;28498;54.400;18.566;2022-10-28T11:44:45;18.60;;;13.02;;
42364;SDS011;28498;54.400;18.566;2022-10-28T11:56:29;15.90;;;10.38;;
42364;SDS011;28498;54.400;18.566;2022-10-28T12:13:22;19.80;;;11.65;;
42364;SDS011;28498;54.400;18.566;2022-10-28T12:24:00;15.07;;;10.07;;
42364;SDS011;28498;54.400;18.566;2022-10-28T12:26:37;15.40;;;10.45;;
42364;SDS011;28498;54.400;18.566;2022-10-28T12:29:09;16.38;;;9.63;;
42364;SDS011;28498;54.400;18.566;2022-10-28T12:31:50;15.75;;;10.70;;
42364;SDS011;28498;54.400;18.566;2022-10-28T12:34:44;16.42;;;10.38;;
42364;SDS011;28498;54.400;18.566;2022-10-28T12:37:26;14.38;;;10.40;;
42364;SDS011;28498;54.400;18.566;2022-10-28T12:40:05;18.90;;;11.25;;
42364;SDS011;28498;54.400;18.566;2022-10-28T12:45:18;15.80;;;10.95;;
42364;SDS011;28498;54.400;18.566;2022-10-28T12:47:49;14.85;;;9.98;;
42364;SDS011;28498;54.400;18.566;2022-10-28T12:50:35;16.08;;;10.40;;
42364;SDS011;28498;54.400;18.566;2022-10-28T12:55:47;16.33;;;9.52;;
42364;SDS011;28498;54.400;18.566;2022-10-28T12:58:39;15.60;;;9.27;;
42364;SDS011;28498;54.400;18.566;2022-10-28T13:01:17;16.60;;;8.80;;
42364;SDS011;28498;54.400;18.566;2022-10-28T13:03:48;15.82;;;8.75;;
42364;SDS011;28498;54.400;18.566;2022-10-28T13:06:20;13.77;;;8.43;;
42364;SDS011;28498;54.400;18.566;2022-10-28T13:12:14;10.95;;;7.55;;
42364;SDS011;28498;54.400;18.566;2022-10-28T13:15:04;14.70;;;8.25;;
42364;SDS011;28498;54.400;18.566;2022-10-28T13:20:51;16.40;;;7.38;;
42364;SDS011;28498;54.400;18.566;2022-10-28T13:23:26;20.92;;;8.10;;
42364;SDS011;28498;54.400;18.566;2022-10-28T13:26:21;15.23;;;7.63;;
42364;SDS011;28498;54.400;18.566;2022-10-28T13:28:53;13.80;;;7.07;;
42364;SDS011;28498;54.400;18.566;2022-10-28T13:31:22;14.50;;;7.90;;
42364;SDS011;28498;54.400;18.566;2022-10-28T13:34:00;18.10;;;7.90;;
42364;SDS011;28498;54.400;18.566;2022-10-28T13:36:31;16.88;;;7.82;;
42364;SDS011;28498;54.400;18.566;2022-10-28T13:39:20;14.77;;;7.93;;
42364;SDS011;28498;54.400;18.566;2022-10-28T13:44:46;15.82;;;7.68;;
42364;SDS011;28498;54.400;18.566;2022-10-28T13:52:35;15.88;;;8.77;;
42364;SDS011;28498;54.400;18.566;2022-10-28T13:57:42;13.70;;;8.25;;
42364;SDS011;28498;54.400;18.566;2022-10-28T14:02:46;19.80;;;10.43;;
42364;SDS011;28498;54.400;18.566;2022-10-28T14:05:48;17.35;;;9.88;;
42364;SDS011;28498;54.400;18.566;2022-10-28T14:08:25;15.73;;;9.15;;
42364;SDS011;28498;54.400;18.566;2022-10-28T14:14:00;16.55;;;10.18;;
42364;SDS011;28498;54.400;18.566;2022-10-28T14:16:38;14.23;;;9.65;;
42364;SDS011;28498;54.400;18.566;2022-10-28T14:24:37;15.68;;;10.30;;
42364;SDS011;28498;54.400;18.566;2022-10-28T14:29:44;17.10;;;10.52;;
42364;SDS011;28498;54.400;18.566;2022-10-28T14:38:02;19.80;;;10.95;;
42364;SDS011;28498;54.400;18.566;2022-10-28T14:48:59;18.98;;;12.75;;
42364;SDS011;28498;54.400;18.566;2022-10-28T14:51:35;17.05;;;12.48;;
42364;SDS011;28498;54.400;18.566;2022-10-28T14:54:06;23.58;;;14.07;;
42364;SDS011;28498;54.400;18.566;2022-10-28T14:56:38;19.10;;;12.90;;
42364;SDS011;28498;54.400;18.566;2022-10-28T15:04:26;23.50;;;13.85;;
42364;SDS011;28498;54.400;18.566;2022-10-28T15:06:55;18.40;;;12.35;;
42364;SDS011;28498;54.400;18.566;2022-10-28T15:09:23;22.42;;;13.75;;
42364;SDS011;28498;54.400;18.566;2022-10-28T15:11:56;19.73;;;12.90;;
42364;SDS011;28498;54.400;18.566;2022-10-28T15:16:58;20.58;;;12.32;;
42364;SDS011;28498;54.400;18.566;2022-10-28T15:19:32;24.63;;;14.88;;
42364;SDS011;28498;54.400;18.566;2022-10-28T15:22:16;22.73;;;14.27;;
42364;SDS011;28498;54.400;18.566;2022-10-28T15:25:02;20.38;;;13.88;;
42364;SDS011;28498;54.400;18.566;2022-10-28T15:27:32;22.55;;;14.80;;
42364;SDS011;28498;54.400;18.566;2022-10-28T15:30:00;23.55;;;14.48;;
42364;SDS011;28498;54.400;18.566;2022-10-28T15:32:30;21.75;;;15.65;;
42364;SDS011;28498;54.400;18.566;2022-10-28T15:35:23;21.65;;;15.82;;
42364;SDS011;28498;54.400;18.566;2022-10-28T15:40:50;25.33;;;14.57;;
42364;SDS011;28498;54.400;18.566;2022-10-28T15:43:17;26.83;;;15.80;;
42364;SDS011;28498;54.400;18.566;2022-10-28T15:46:15;24.17;;;15.07;;
42364;SDS011;28498;54.400;18.566;2022-10-28T15:48:42;23.05;;;15.13;;
42364;SDS011;28498;54.400;18.566;2022-10-28T15:51:10;27.65;;;15.43;;
42364;SDS011;28498;54.400;18.566;2022-10-28T15:53:45;26.45;;;14.98;;
42364;SDS011;28498;54.400;18.566;2022-10-28T15:56:56;25.63;;;14.00;;
42364;SDS011;28498;54.400;18.566;2022-10-28T15:59:23;22.95;;;13.65;;
42364;SDS011;28498;54.400;18.566;2022-10-28T16:01:51;24.60;;;16.02;;
42364;SDS011;28498;54.400;18.566;2022-10-28T16:04:39;23.58;;;16.40;;
42364;SDS011;28498;54.400;18.566;2022-10-28T16:07:08;20.88;;;14.82;;
42364;SDS011;28498;54.400;18.566;2022-10-28T16:09:45;24.15;;;14.70;;
42364;SDS011;28498;54.400;18.566;2022-10-28T16:12:14;24.90;;;17.80;;
42364;SDS011;28498;54.400;18.566;2022-10-28T16:14:56;24.48;;;17.80;;
42364;SDS011;28498;54.400;18.566;2022-10-28T16:17:32;33.55;;;21.17;;
42364;SDS011;28498;54.400;18.566;2022-10-28T16:20:02;31.27;;;21.13;;
42364;SDS011;28498;54.400;18.566;2022-10-28T16:22:44;32.83;;;22.63;;
42364;SDS011;28498;54.400;18.566;2022-10-28T16:25:21;34.88;;;21.98;;
42364;SDS011;28498;54.400;18.566;2022-10-28T16:31:28;33.42;;;22.02;;
42364;SDS011;28498;54.400;18.566;2022-10-28T16:33:57;32.80;;;22.20;;
42364;SDS011;28498;54.400;18.566;2022-10-28T16:36:24;34.45;;;21.95;;
42364;SDS011;28498;54.400;18.566;2022-10-28T16:38:53;30.17;;;21.50;;
42364;SDS011;28498;54.400;18.566;2022-10-28T16:41:20;31.05;;;22.23;;
42364;SDS011;28498;54.400;18.566;2022-10-28T16:43:48;29.63;;;20.17;;
42364;SDS011;28498;54.400;18.566;2022-10-28T16:46:14;30.35;;;22.00;;
42364;SDS011;28498;54.400;18.566;2022-10-28T16:48:42;31.85;;;21.60;;
42364;SDS011;28498;54.400;18.566;2022-10-28T16:51:13;34.10;;;21.85;;
42364;SDS011;28498;54.400;18.566;2022-10-28T16:53:43;36.58;;;22.90;;
42364;SDS011;28498;54.400;18.566;2022-10-28T16:56:13;30.05;;;21.00;;
42364;SDS011;28498;54.400;18.566;2022-10-28T16:58:41;35.28;;;21.67;;
42364;SDS011;28498;54.400;18.566;2022-10-28T17:01:09;33.25;;;20.73;;
42364;SDS011;28498;54.400;18.566;2022-10-28T17:03:37;36.97;;;22.90;;
42364;SDS011;28498;54.400;18.566;2022-10-28T17:06:04;30.48;;;19.45;;
42364;SDS011;28498;54.400;18.566;2022-10-28T17:08:31;34.30;;;21.63;;
42364;SDS011;28498;54.400;18.566;2022-10-28T17:11:18;35.00;;;20.65;;
42364;SDS011;28498;54.400;18.566;2022-10-28T17:13:45;35.40;;;21.40;;
42364;SDS011;28498;54.400;18.566;2022-10-28T17:16:13;31.15;;;20.83;;
42364;SDS011;28498;54.400;18.566;2022-10-28T17:18:40;28.90;;;20.83;;
42364;SDS011;28498;54.400;18.566;2022-10-28T17:21:08;40.80;;;22.63;;
42364;SDS011;28498;54.400;18.566;2022-10-28T17:23:35;31.55;;;20.85;;
42364;SDS011;28498;54.400;18.566;2022-10-28T17:26:04;36.40;;;22.58;;
42364;SDS011;28498;54.400;18.566;2022-10-28T17:28:31;37.72;;;22.80;;
42364;SDS011;28498;54.400;18.566;2022-10-28T17:31:02;35.17;;;23.90;;
42364;SDS011;28498;54.400;18.566;2022-10-28T17:33:31;36.00;;;23.25;;
42364;SDS011;28498;54.400;18.566;2022-10-28T17:36:02;35.22;;;23.55;;
42364;SDS011;28498;54.400;18.566;2022-10-28T17:38:31;35.13;;;22.10;;
42364;SDS011;28498;54.400;18.566;2022-10-28T17:40:58;32.25;;;20.85;;
42364;SDS011;28498;54.400;18.566;2022-10-28T17:43:25;38.95;;;22.83;;
42364;SDS011;28498;54.400;18.566;2022-10-28T17:45:52;34.53;;;21.17;;
42364;SDS011;28498;54.400;18.566;2022-10-28T17:48:31;38.53;;;23.10;;
42364;SDS011;28498;54.400;18.566;2022-10-28T17:50:59;39.72;;;24.35;;
42364;SDS011;28498;54.400;18.566;2022-10-28T17:53:26;40.63;;;25.98;;